This is the latest recevied weather packets stored in our database for station/object F4WDE-10. If no packets are shown the sender has not sent any weather packets the latest 10 day(s).
| Time | Temp. | Humidity | Pressure | Rain* | Wind** | Luminosity | Snow |
|---|---|---|---|---|---|---|---|
| 1777909191 | 16.11° C | 94% | 961 hPa | - | - | - | - |
| 1777908289 | 16.11° C | 93% | 961 hPa | - | - | - | - |
| 1777907388 | 16.11° C | 95% | 961 hPa | - | - | - | - |
| 1777906487 | 16.11° C | 94% | 961 hPa | - | - | - | - |
| 1777905586 | 16.67° C | 94% | 961 hPa | - | - | - | - |
| 1777904685 | 16.11° C | 97% | 961 hPa | - | - | - | - |
| 1777903784 | 16.67° C | 95% | 961 hPa | - | - | - | - |
| 1777902883 | 17.22° C | 90% | 961 hPa | - | - | - | - |
| 1777901982 | 17.22° C | 88% | 961 hPa | - | - | - | - |
| 1777901081 | 16.67° C | 90% | 961 hPa | - | - | - | - |
| 1777900180 | 17.22° C | 88% | 962 hPa | - | - | - | - |
| 1777899279 | 17.78° C | 84% | 962 hPa | - | - | - | - |
| 1777898378 | 17.78° C | 84% | 962 hPa | - | - | - | - |
| 1777897476 | 18.33° C | 80% | 962 hPa | - | - | - | - |
| 1777896575 | 17.78° C | 81% | 962 hPa | - | - | - | - |
| 1777895674 | 17.78° C | 82% | 962 hPa | - | - | - | - |
| 1777894773 | 17.78° C | 83% | 962 hPa | - | - | - | - |
| 1777893871 | 17.22° C | 88% | 962 hPa | - | - | - | - |
| 1777892970 | 17.22° C | 84% | 962 hPa | - | - | - | - |
| 1777892069 | 18.33° C | 74% | 962 hPa | - | - | - | - |
| 1777891168 | 20° C | 66% | 962 hPa | - | - | - | - |
| 1777890267 | 20.56° C | 59% | 963 hPa | - | - | - | - |
| 1777889366 | 21.67° C | 43% | 962 hPa | - | - | - | - |
| 1777888465 | 21.67° C | 45% | 963 hPa | - | - | - | - |
| 1777887563 | 23.33° C | 41% | 962 hPa | - | - | - | - |
* Rain since midnight (hover to see other rain measurements)
** Current wind speed in m/s (hover to see current wind gust speed)